Chrisman, Illinois
Current Conditions -  °F | °C
As of 11:35 AM on Thursday 30 Oct 2014 (Local Time) from KPRG Reporting Station
Clear Clear  
Wind Chill: 48°   Ceiling: Unl
Heat Index: 49°   Visibility: 10mi
Dew Point: 35°   Wind: 5mph
Humidity: 58%   Direction: 200°SSW
Pressure: 30.16"   Gusts: NA
Location:  39.8°N, 87.67°W
Report Text: KPRG 301635Z AUTO 20004KT 10SM CLR 10/02 A3016 RMK AO2 T00970018
Loading
Personal Weather Stations






























Interactive Weather Map
Tropical Storm Tracking
New forecast layout! Learn more

10-Day Weather Forecast

Advertisements
Track Severe Weather on mobile